createdAt,value
2023-03-20T00:00:59.608Z,63.53
2023-03-20T00:03:26.741Z,65.30
2023-03-20T00:05:53.785Z,64.22
2023-03-20T00:08:20.837Z,66.00
2023-03-20T00:10:47.937Z,64.75
2023-03-20T00:13:23.388Z,60.83
2023-03-20T00:15:50.732Z,65.13
2023-03-20T00:18:20.691Z,66.15
2023-03-20T00:20:48.183Z,66.57
2023-03-20T00:23:15.536Z,66.70
2023-03-20T00:25:44.588Z,60.72
2023-03-20T00:28:30.218Z,64.28
2023-03-20T00:30:57.432Z,64.40
2023-03-20T00:33:24.615Z,66.05
2023-03-20T00:35:51.763Z,62.25
2023-03-20T00:38:18.942Z,63.47
2023-03-20T00:40:46.158Z,63.22
2023-03-20T00:43:16.258Z,57.95
2023-03-20T00:45:46.291Z,62.10
2023-03-20T00:48:17.129Z,61.33
2023-03-20T00:50:45.103Z,65.47
2023-03-20T00:53:12.640Z,59.40
2023-03-20T00:55:40.894Z,60.92
2023-03-20T00:58:09.813Z,61.17
2023-03-20T01:00:41.354Z,63.40
2023-03-20T01:03:18.278Z,69.53
2023-03-20T01:05:48.312Z,70.03
2023-03-20T01:08:18.901Z,71.72
2023-03-20T01:10:47.619Z,70.15
2023-03-20T01:13:33.470Z,69.70
2023-03-20T01:16:00.798Z,66.00
2023-03-20T01:18:28.058Z,63.97
2023-03-20T01:20:55.202Z,69.00
2023-03-20T01:23:26.886Z,66.38
2023-03-20T01:25:54.235Z,67.75
2023-03-20T01:28:24.703Z,62.28
2023-03-20T01:30:52.855Z,68.15
2023-03-20T01:33:23.132Z,59.92
2023-03-20T01:35:54.179Z,62.70
2023-03-20T01:38:24.705Z,68.90
2023-03-20T01:41:16.938Z,66.75
2023-03-20T01:43:46.172Z,69.03
2023-03-20T01:46:24.169Z,65.78
2023-03-20T01:48:53.706Z,73.75
2023-03-20T01:51:27.607Z,68.07
2023-03-20T01:54:11.177Z,65.00
2023-03-20T01:56:52.247Z,67.00
2023-03-20T01:59:29.949Z,65.53
2023-03-20T02:01:57.270Z,64.03
2023-03-20T02:04:30.376Z,63.58
2023-03-20T02:07:06.828Z,59.97
2023-03-20T02:09:52.739Z,60.55
2023-03-20T02:12:28.123Z,67.50
2023-03-20T02:14:56.385Z,61.70
2023-03-20T02:17:43.711Z,66.15
2023-03-20T02:20:23.207Z,64.63
2023-03-20T02:23:11.783Z,67.32
2023-03-20T02:26:00.366Z,65.60
2023-03-20T02:28:37.644Z,60.78
2023-03-20T02:31:29.692Z,61.05
2023-03-20T02:34:19.512Z,66.10
2023-03-20T02:36:56.130Z,62.42
2023-03-20T02:40:03.035Z,66.32
2023-03-20T02:42:45.116Z,66.95
2023-03-20T02:45:26.893Z,61.65
2023-03-20T02:48:17.378Z,62.25
2023-03-20T02:51:14.128Z,62.17
2023-03-20T02:53:49.716Z,62.53
2023-03-20T02:56:25.517Z,61.35
2023-03-20T02:59:01.787Z,59.00
2023-03-20T03:01:36.362Z,60.85
2023-03-20T03:04:14.701Z,60.92
2023-03-20T03:06:45.178Z,66.82
2023-03-20T03:09:23.734Z,67.97
2023-03-20T03:11:56.544Z,63.80
2023-03-20T03:14:39.548Z,64.93
2023-03-20T03:17:13.345Z,67.15
2023-03-20T03:19:48.192Z,63.90
2023-03-20T03:22:16.940Z,64.50
2023-03-20T03:24:50.164Z,65.13
2023-03-20T03:27:28.226Z,67.80
2023-03-20T03:30:03.503Z,69.22
2023-03-20T03:32:35.930Z,65.50
2023-03-20T03:35:06.494Z,65.57
2023-03-20T03:37:48.778Z,69.82
2023-03-20T03:40:44.856Z,66.88
2023-03-20T03:43:36.125Z,69.07
2023-03-20T03:46:19.532Z,73.95
2023-03-20T03:48:52.515Z,68.00
2023-03-20T03:51:27.594Z,65.45
2023-03-20T03:54:17.597Z,74.30
2023-03-20T03:56:54.366Z,67.28
2023-03-20T03:59:28.579Z,66.28
2023-03-20T04:01:57.256Z,71.15
2023-03-20T04:04:26.544Z,67.60
2023-03-20T04:06:53.854Z,70.75
2023-03-20T04:09:20.887Z,69.53
2023-03-20T04:11:50.988Z,71.53
2023-03-20T04:14:19.973Z,67.30
2023-03-20T04:16:47.253Z,67.18
2023-03-20T04:19:14.445Z,70.72
2023-03-20T04:21:45.859Z,66.43
2023-03-20T04:24:12.986Z,65.57
2023-03-20T04:26:40.698Z,65.15
2023-03-20T04:29:07.947Z,71.47
2023-03-20T04:31:37.831Z,72.88
2023-03-20T04:34:17.034Z,76.97
2023-03-20T04:37:01.459Z,67.75
2023-03-20T04:39:43.225Z,69.68
2023-03-20T04:42:11.954Z,65.40
2023-03-20T04:44:39.116Z,65.38
2023-03-20T04:47:06.751Z,67.55
2023-03-20T04:49:37.149Z,68.13
2023-03-20T04:52:04.527Z,63.08
2023-03-20T04:54:38.429Z,66.18
2023-03-20T04:57:05.684Z,65.82
2023-03-20T04:59:33.398Z,63.00
2023-03-20T05:02:01.280Z,62.95
2023-03-20T05:04:28.391Z,64.97
2023-03-20T05:06:56.867Z,63.65
2023-03-20T05:09:29.272Z,58.72
2023-03-20T05:12:00.277Z,60.75
2023-03-20T05:15:01.221Z,62.05
2023-03-20T05:17:50.526Z,60.53
2023-03-20T05:20:35.125Z,66.88
2023-03-20T05:23:28.277Z,61.95
2023-03-20T05:26:13.936Z,56.88
2023-03-20T05:28:59.236Z,64.13
2023-03-20T05:31:52.415Z,60.03
2023-03-20T05:34:38.013Z,59.53
2023-03-20T05:37:31.508Z,57.55
2023-03-20T05:40:20.934Z,55.10
2023-03-20T05:43:17.396Z,57.80
2023-03-20T05:46:18.280Z,59.28
2023-03-20T05:49:05.842Z,55.28
2023-03-20T05:51:53.211Z,61.50
2023-03-20T05:54:38.154Z,55.15
2023-03-20T05:57:17.907Z,56.80
2023-03-20T06:00:17.937Z,55.43
2023-03-20T06:03:07.158Z,58.78
2023-03-20T06:05:51.475Z,59.08
2023-03-20T06:08:18.865Z,53.42
2023-03-20T06:10:46.087Z,54.83
2023-03-20T06:13:13.332Z,55.88
2023-03-20T06:15:40.573Z,58.72
2023-03-20T06:18:14.873Z,61.33
2023-03-20T06:20:42.030Z,67.93
2023-03-20T06:23:09.745Z,66.75
2023-03-20T06:25:37.054Z,67.30
2023-03-20T06:28:04.424Z,72.35
2023-03-20T06:30:31.819Z,76.35
2023-03-20T06:32:58.958Z,78.65
2023-03-20T06:35:34.736Z,77.18
2023-03-20T06:38:02.468Z,70.47
2023-03-20T06:40:30.467Z,76.45
2023-03-20T06:42:57.838Z,78.72
2023-03-20T06:45:33.955Z,70.72
2023-03-20T06:48:09.580Z,69.75
2023-03-20T06:50:36.733Z,82.78
2023-03-20T06:53:04.131Z,73.10
2023-03-20T06:55:38.536Z,72.30
2023-03-20T06:58:06.212Z,64.07
2023-03-20T07:00:34.806Z,72.95
2023-03-20T07:03:05.278Z,67.40
2023-03-20T07:05:33.015Z,58.58
2023-03-20T07:08:02.543Z,67.10
2023-03-20T07:10:29.768Z,73.63
2023-03-20T07:12:57.310Z,56.67
2023-03-20T07:15:24.982Z,62.72
2023-03-20T07:17:52.080Z,63.22
2023-03-20T07:20:19.357Z,58.53
2023-03-20T07:22:48.424Z,55.67
2023-03-20T07:25:35.446Z,51.72
2023-03-20T07:28:07.154Z,55.72
2023-03-20T07:30:36.194Z,58.10
2023-03-20T07:33:03.775Z,53.88
2023-03-20T07:35:33.290Z,58.03
2023-03-20T07:38:00.660Z,48.45
2023-03-20T07:40:28.262Z,60.75
2023-03-20T07:43:06.125Z,59.58
2023-03-20T07:45:51.890Z,59.72
2023-03-20T07:48:20.412Z,53.95
2023-03-20T07:50:47.578Z,60.83
2023-03-20T07:53:14.860Z,57.42
2023-03-20T07:55:41.931Z,53.55
2023-03-20T07:58:10.855Z,52.03
2023-03-20T08:00:37.992Z,56.03
2023-03-20T08:03:05.132Z,54.08
2023-03-20T08:05:33.075Z,59.97
2023-03-20T08:08:00.170Z,54.95
2023-03-20T08:10:27.782Z,48.75
2023-03-20T08:12:55.168Z,54.30
2023-03-20T08:15:22.769Z,54.15
2023-03-20T08:17:49.862Z,63.55
2023-03-20T08:20:17.676Z,57.50
2023-03-20T08:22:45.475Z,56.97
2023-03-20T08:25:12.628Z,60.38
2023-03-20T08:27:39.995Z,54.72
2023-03-20T08:30:07.903Z,57.70
2023-03-20T08:32:35.143Z,49.97
2023-03-20T08:35:02.399Z,54.97
2023-03-20T08:37:29.422Z,54.55
2023-03-20T08:39:56.631Z,56.08
2023-03-20T08:42:23.728Z,60.15
2023-03-20T08:44:51.046Z,61.15
2023-03-20T08:47:18.423Z,65.30
2023-03-20T08:49:45.683Z,60.50
2023-03-20T08:52:13.038Z,62.35
2023-03-20T08:54:40.149Z,67.13
2023-03-20T08:57:07.279Z,59.22
2023-03-20T08:59:34.337Z,64.78
2023-03-20T09:02:01.583Z,68.75
2023-03-20T09:04:28.816Z,70.88
2023-03-20T09:06:56.449Z,71.75
2023-03-20T09:09:29.667Z,85.15
2023-03-20T09:11:58.092Z,76.13
2023-03-20T09:14:26.889Z,75.82
2023-03-20T09:16:54.628Z,94.28
2023-03-20T09:19:21.734Z,114.95
2023-03-20T09:21:49.191Z,97.22
2023-03-20T09:24:16.666Z,86.75
2023-03-20T09:26:43.860Z,102.18
2023-03-20T09:29:11.069Z,93.63
2023-03-20T09:31:38.282Z,95.57
2023-03-20T09:34:05.360Z,94.95
2023-03-20T09:36:33.290Z,101.53
2023-03-20T09:39:00.639Z,90.18
2023-03-20T09:41:28.596Z,84.65
2023-03-20T09:44:14.364Z,82.25
2023-03-20T09:47:19.812Z,79.03
2023-03-20T09:50:09.560Z,79.75
2023-03-20T09:53:08.997Z,78.78
2023-03-20T09:55:40.298Z,75.97
2023-03-20T09:58:13.605Z,85.65
2023-03-20T10:00:45.582Z,83.30
2023-03-20T10:04:05.336Z,73.22
2023-03-20T10:06:35.108Z,75.07
2023-03-20T10:09:06.989Z,68.43
2023-03-20T10:12:08.666Z,73.70
2023-03-20T10:14:48.133Z,70.88
2023-03-20T10:17:53.831Z,73.43
2023-03-20T10:20:50.686Z,75.40
2023-03-20T10:23:41.315Z,68.07
2023-03-20T10:26:15.227Z,69.93
2023-03-20T10:29:23.634Z,67.28
2023-03-20T10:32:57.832Z,67.82
2023-03-20T10:41:34.519Z,65.68
2023-03-20T10:44:02.661Z,69.35
2023-03-20T10:46:42.345Z,64.60
2023-03-20T10:49:21.843Z,60.78
2023-03-20T10:51:52.903Z,57.42
2023-03-20T10:54:31.188Z,58.25
2023-03-20T10:57:02.244Z,57.80
2023-03-20T10:59:37.737Z,58.78
2023-03-20T11:02:16.064Z,53.35
2023-03-20T11:04:43.857Z,52.47
2023-03-20T11:07:34.384Z,60.58
2023-03-20T11:10:08.230Z,55.78
2023-03-20T11:12:38.965Z,52.15
2023-03-20T11:15:34.598Z,48.97
2023-03-20T11:18:08.068Z,52.67
2023-03-20T11:20:59.973Z,47.75
2023-03-20T11:23:34.031Z,49.40
2023-03-20T11:26:12.084Z,56.65
2023-03-20T11:28:52.818Z,54.65
2023-03-20T11:31:35.083Z,54.40
2023-03-20T11:34:05.305Z,55.80
2023-03-20T11:36:34.951Z,58.38
2023-03-20T11:39:06.246Z,58.40
2023-03-20T11:41:33.950Z,56.53
2023-03-20T11:44:01.111Z,56.08
2023-03-20T11:46:28.465Z,55.38
2023-03-20T11:49:24.783Z,57.30
2023-03-20T11:51:53.033Z,51.03
2023-03-20T11:54:24.502Z,52.30
2023-03-20T11:57:01.492Z,56.03
2023-03-20T11:59:35.507Z,52.75
2023-03-20T12:02:13.924Z,54.47
2023-03-20T12:04:43.093Z,55.00
2023-03-20T12:07:34.064Z,55.45
2023-03-20T12:10:08.704Z,57.75
2023-03-20T12:12:56.983Z,64.50
2023-03-20T12:15:44.985Z,64.30
2023-03-20T12:18:27.218Z,59.10
2023-03-20T12:21:11.904Z,61.92
2023-03-20T12:23:50.695Z,63.22
2023-03-20T12:26:29.153Z,58.55
2023-03-20T12:29:23.784Z,66.10
2023-03-20T12:32:07.287Z,63.15
2023-03-20T12:34:59.182Z,59.80
2023-03-20T12:37:26.860Z,53.97
2023-03-20T12:40:00.168Z,54.25
2023-03-20T12:42:48.984Z,47.08
2023-03-20T12:45:25.782Z,50.83
2023-03-20T12:48:35.297Z,46.05
2023-03-20T12:51:14.371Z,41.50
2023-03-20T12:53:55.460Z,34.33
2023-03-20T12:56:22.533Z,30.15
2023-03-20T12:59:04.680Z,32.17
2023-03-20T13:01:40.329Z,32.00
2023-03-20T13:04:25.692Z,27.73
2023-03-20T13:07:03.079Z,23.58
2023-03-20T13:09:57.386Z,23.33
2023-03-20T13:12:37.436Z,20.30
2023-03-20T13:15:21.669Z,21.65
2023-03-20T13:17:48.715Z,21.92
2023-03-20T13:20:30.027Z,21.60
2023-03-20T13:23:41.342Z,23.75
2023-03-20T13:26:32.940Z,21.75
2023-03-20T13:29:28.089Z,21.52
2023-03-20T13:32:31.829Z,21.38
2023-03-20T13:35:30.631Z,19.13
2023-03-20T13:38:01.836Z,20.92
2023-03-20T13:40:32.801Z,17.95
2023-03-20T13:43:21.641Z,15.57
2023-03-20T13:45:52.515Z,15.75
2023-03-20T13:48:31.609Z,15.98
2023-03-20T13:51:29.768Z,17.25
2023-03-20T13:54:07.488Z,18.52
2023-03-20T13:57:11.220Z,17.38
2023-03-20T13:59:51.003Z,15.30
2023-03-20T14:02:49.249Z,16.33
2023-03-20T14:05:23.140Z,17.38
2023-03-20T14:07:58.763Z,18.05
2023-03-20T14:10:26.133Z,13.18
2023-03-20T14:12:56.920Z,14.30
2023-03-20T14:15:34.314Z,14.02
2023-03-20T14:18:15.888Z,14.73
2023-03-20T14:20:44.600Z,14.82
2023-03-20T14:23:20.876Z,12.23
2023-03-20T14:25:49.430Z,14.63
2023-03-20T14:28:16.585Z,12.07
2023-03-20T14:30:50.204Z,11.98
2023-03-20T14:33:17.356Z,11.43
2023-03-20T14:35:51.476Z,12.15
2023-03-20T14:38:21.411Z,9.65
2023-03-20T14:41:06.414Z,9.63
2023-03-20T14:43:58.756Z,11.73
2023-03-20T14:46:41.449Z,10.43
2023-03-20T14:49:35.635Z,10.57
2023-03-20T14:52:54.560Z,11.48
2023-03-20T14:55:22.660Z,12.35
2023-03-20T14:57:56.611Z,10.68
2023-03-20T15:00:30.297Z,11.73
2023-03-20T15:03:17.538Z,12.43
2023-03-20T15:05:45.999Z,14.80
2023-03-20T15:08:24.569Z,15.70
2023-03-20T15:10:55.480Z,21.98
2023-03-20T15:13:24.928Z,24.60
2023-03-20T15:16:05.281Z,24.30
2023-03-20T15:21:04.455Z,31.45
2023-03-20T15:23:31.641Z,31.10
2023-03-20T15:26:00.978Z,35.42
2023-03-20T15:28:28.280Z,34.60
2023-03-20T15:30:59.784Z,28.40
2023-03-20T15:33:36.854Z,30.45
2023-03-20T15:36:22.937Z,30.92
2023-03-20T15:38:50.055Z,31.95
2023-03-20T15:41:34.108Z,32.17
2023-03-20T15:44:16.735Z,33.72
2023-03-20T15:46:54.819Z,34.72
2023-03-20T15:49:23.209Z,33.40
2023-03-20T15:51:52.262Z,34.40
2023-03-20T15:54:20.247Z,33.78
2023-03-20T15:56:50.420Z,34.20
2023-03-20T15:59:21.460Z,34.78
2023-03-20T16:01:51.392Z,30.98
2023-03-20T16:04:19.846Z,32.60
2023-03-20T16:06:49.812Z,35.30
2023-03-20T16:09:17.795Z,33.30
2023-03-20T16:11:48.144Z,38.53
2023-03-20T16:16:47.758Z,36.45
2023-03-20T16:21:51.912Z,36.40
2023-03-20T16:24:28.423Z,33.38
2023-03-20T16:26:56.894Z,33.70
2023-03-20T16:29:27.622Z,33.75
2023-03-20T16:31:58.992Z,36.38
2023-03-20T16:34:33.602Z,31.33
2023-03-20T16:37:06.424Z,40.78
2023-03-20T16:39:33.748Z,38.17
2023-03-20T16:42:26.057Z,35.97
2023-03-20T16:44:57.407Z,33.47
2023-03-20T16:47:36.444Z,32.60
2023-03-20T16:50:24.210Z,34.75
2023-03-20T16:52:59.104Z,32.95
2023-03-20T16:55:35.769Z,32.33
2023-03-20T16:58:06.708Z,32.45
2023-03-20T17:01:02.883Z,34.92
2023-03-20T17:03:45.989Z,34.78
2023-03-20T17:06:21.927Z,35.67
2023-03-20T17:08:54.514Z,32.45
2023-03-20T17:11:34.136Z,36.53
2023-03-20T17:14:01.746Z,32.83
2023-03-20T17:16:29.025Z,32.65
2023-03-20T17:19:07.472Z,34.70
2023-03-20T17:21:34.770Z,32.00
2023-03-20T17:24:02.108Z,32.85
2023-03-20T17:26:29.516Z,30.98
2023-03-20T17:28:56.757Z,32.10
2023-03-20T17:31:23.966Z,30.90
2023-03-20T17:33:51.005Z,31.77
2023-03-20T17:36:25.877Z,31.70
2023-03-20T17:38:57.326Z,38.15
2023-03-20T17:41:26.378Z,31.70
2023-03-20T17:43:54.041Z,32.13
2023-03-20T17:46:22.560Z,34.63
2023-03-20T17:48:50.759Z,31.77
2023-03-20T17:51:17.772Z,36.60
2023-03-20T17:53:44.896Z,34.47
2023-03-20T17:56:16.069Z,33.53
2023-03-20T17:58:46.070Z,33.80
2023-03-20T18:01:14.166Z,37.05
2023-03-20T18:03:41.546Z,35.28
2023-03-20T18:06:16.349Z,34.60
2023-03-20T18:08:43.445Z,35.58
2023-03-20T18:11:10.527Z,36.13
2023-03-20T18:13:37.536Z,31.98
2023-03-20T18:16:04.825Z,33.42
2023-03-20T18:18:32.117Z,34.83
2023-03-20T18:20:59.527Z,36.65
2023-03-20T18:23:26.480Z,34.92
2023-03-20T18:25:53.588Z,30.75
2023-03-20T18:28:23.287Z,40.10
2023-03-20T18:30:51.791Z,38.25
2023-03-20T18:33:19.641Z,38.15
2023-03-20T18:35:47.167Z,37.25
2023-03-20T18:38:14.627Z,40.60
2023-03-20T18:40:43.875Z,43.05
2023-03-20T18:43:11.333Z,38.22
2023-03-20T18:45:40.051Z,39.15
2023-03-20T18:48:11.085Z,36.25
2023-03-20T18:50:43.597Z,35.13
2023-03-20T18:53:11.251Z,36.70
2023-03-20T18:55:38.501Z,35.80
2023-03-20T18:58:06.565Z,36.58
2023-03-20T19:00:40.412Z,36.33
2023-03-20T19:03:09.275Z,37.45
2023-03-20T19:05:36.626Z,34.72
2023-03-20T19:08:04.540Z,35.03
2023-03-20T19:10:44.169Z,33.10
2023-03-20T19:13:16.330Z,32.77
2023-03-20T19:15:45.614Z,37.05
2023-03-20T19:18:17.298Z,34.92
2023-03-20T19:20:52.878Z,32.22
2023-03-20T19:23:20.900Z,31.05
2023-03-20T19:25:50.267Z,24.98
2023-03-20T19:28:34.603Z,22.60
2023-03-20T19:31:04.675Z,19.10
2023-03-20T19:33:33.403Z,18.98
2023-03-20T19:36:11.879Z,17.38
2023-03-20T19:38:39.271Z,18.35
2023-03-20T19:41:08.708Z,15.15
2023-03-20T19:43:51.407Z,16.77
2023-03-20T19:46:37.760Z,15.48
2023-03-20T19:49:06.818Z,24.17
2023-03-20T19:51:34.075Z,20.65
2023-03-20T19:54:01.042Z,18.92
2023-03-20T19:56:28.102Z,17.45
2023-03-20T19:58:55.234Z,14.93
2023-03-20T20:01:25.174Z,15.15
2023-03-20T20:03:57.866Z,12.90
2023-03-20T20:06:31.175Z,13.18
2023-03-20T20:08:59.422Z,12.95
2023-03-20T20:11:26.412Z,11.85
2023-03-20T20:14:10.353Z,12.02
2023-03-20T20:16:42.771Z,11.75
2023-03-20T20:19:10.413Z,12.43
2023-03-20T20:24:25.173Z,10.57
2023-03-20T20:27:00.063Z,10.98
2023-03-20T20:29:34.380Z,10.75
2023-03-20T20:32:01.858Z,12.20
2023-03-20T20:40:05.364Z,11.55
2023-03-20T20:42:32.521Z,10.80
2023-03-20T20:44:59.655Z,12.85
2023-03-20T20:47:26.788Z,12.30
2023-03-20T20:49:53.975Z,11.18
2023-03-20T20:52:21.240Z,9.63
2023-03-20T20:54:48.433Z,10.80
2023-03-20T20:57:18.083Z,11.15
2023-03-20T20:59:45.135Z,10.82
2023-03-20T21:02:12.937Z,10.95
2023-03-20T21:04:41.859Z,10.63
2023-03-20T21:07:13.074Z,11.57
2023-03-20T21:09:41.260Z,9.98
2023-03-20T21:12:10.714Z,12.15
2023-03-20T21:14:39.890Z,10.10
2023-03-20T21:17:08.058Z,11.52
2023-03-20T21:19:37.887Z,10.68
2023-03-20T21:22:06.900Z,10.00
2023-03-20T21:24:35.309Z,13.43
2023-03-20T21:27:08.289Z,9.10
2023-03-20T21:29:35.814Z,9.50
2023-03-20T21:32:03.237Z,12.95
2023-03-20T21:34:30.620Z,11.48
2023-03-20T21:37:00.056Z,9.98
2023-03-20T21:39:30.613Z,11.95
2023-03-20T21:41:58.493Z,10.68
2023-03-20T21:45:05.762Z,9.98
2023-03-20T21:59:05.013Z,13.05
2023-03-20T22:01:49.271Z,11.40
2023-03-20T22:21:29.751Z,11.15
2023-03-20T22:32:35.245Z,11.40
2023-03-20T22:35:23.007Z,11.80
2023-03-20T22:46:05.562Z,16.20
2023-03-20T22:48:40.124Z,15.30
2023-03-20T22:51:07.757Z,15.60
2023-03-20T22:53:34.772Z,15.23
2023-03-20T22:56:01.823Z,14.18
2023-03-20T22:58:28.924Z,15.25
2023-03-20T23:00:57.323Z,11.73
2023-03-20T23:03:42.193Z,13.07
2023-03-20T23:06:16.004Z,15.77
2023-03-20T23:08:50.740Z,15.10
2023-03-20T23:11:21.680Z,15.10
2023-03-20T23:13:48.722Z,17.00
2023-03-20T23:16:15.921Z,14.40
2023-03-20T23:18:43.274Z,18.25
2023-03-20T23:21:11.128Z,14.98
2023-03-20T23:23:39.242Z,15.55
2023-03-20T23:26:12.484Z,14.50
2023-03-20T23:28:42.555Z,13.73
2023-03-20T23:31:12.600Z,15.48
2023-03-20T23:36:21.360Z,13.88
2023-03-20T23:38:52.524Z,14.82
2023-03-20T23:41:19.471Z,15.07
2023-03-20T23:43:46.465Z,13.93
2023-03-20T23:46:13.687Z,16.60
2023-03-20T23:48:40.752Z,14.20
2023-03-20T23:51:07.988Z,13.48
2023-03-20T23:53:35.450Z,18.20
2023-03-20T23:56:02.521Z,15.73
2023-03-20T23:58:29.681Z,17.90
